Laser MD82 at Valencia on Mar 17th 2014, both nose tyres blown on landing

Last Update: March 18, 2014 / 19:00:07 GMT/Zulu time

Bookmark this article
Incident Facts

Date of incident
Mar 17, 2014

Classification
Incident

Flight number
QL-890

Aircraft Registration
YV2945

ICAO Type Designator
MD82

Airport ICAO Code
SVVA

A Laser Airlines McDonnell Douglas MD-82, registration YV2945 performing flight QL-890 from Porlamar to Valencia (Venezuela) with 96 people on board, burst both nose gear tyres while landing at Valencia Airport at about 20:30L (01:00Z Mar 18th) and came to a stop on the runway with tyres and both nose wheels damaged and was disabled. No injuries occurred. The passengers disembarked onto the runway and were taken to the terminal.

The runway was closed until the aircraft could be towed to the apron.

Metars:
SVVA 180300Z 02006KT CAVOK 27/22 Q1012
SVVA 180200Z 02005KT CAVOK 27/22 Q1012
SVVA 180100Z 02003KT CAVOK 27/22 Q1010
SVVA 180000Z 02008KT 9999 FEW016 28/22 Q1009
SVVA 172300Z 02005KT 9999 FEW016 30/22 Q1008
SVVA 172200Z 11004KT 9999 FEW016 34/20 Q1008
SVVA 172100Z 11006KT 9999 FEW016 35/22 Q1009
Incident Facts

Date of incident
Mar 17, 2014

Classification
Incident

Flight number
QL-890

Aircraft Registration
YV2945

ICAO Type Designator
MD82

Airport ICAO Code
SVVA

This article is published under license from Avherald.com. © of text by Avherald.com.
Article source

You can read 2 more free articles without a subscription.

Subscribe now and continue reading without any limits!

Are you a subscriber? Login
Subscribe

Read unlimited articles and receive our daily update briefing. Gain better insights into what is happening in commercial aviation safety.

Free newsletter

Want to know more and stay ahead? Get our free weekly newsletter and join 5471 existing subscribers.

By subscribing, you accept our terms and conditions and confirm that you've read our privacy policy.

Send tip

Support AeroInside by sending a small tip amount.

Related articles

Newest articles

Subscribe today

Are you researching aviation incidents? Get access to AeroInside Insights, unlimited read access and receive the daily newsletter.

Pick your plan and subscribe

Partner

Blockaviation logo

A new way to document and demonstrate airworthiness compliance and aircraft value. Find out more.

Virtual Speech logo

ELITE Simulation Solutions is a leading global provider of Flight Simulation Training Devices, IFR training software as well as flight controls and related services. Find out more.

Get updates

Never miss an article from AeroInside. Subscribe to our free weekly newsletter and join 5471 existing subscribers.

By subscribing, you accept our terms and conditions and that you've read our privacy policy.

AeroInside Blog
Popular aircraft
Airbus A320
Boeing 737-800
Boeing 737-800 MAX
Popular airlines
American Airlines
United
Delta
Air Canada
Lufthansa
British Airways